Terminal Aerodrome Forecast
Issued by NWS

Home | Current Version | Previous Version | Text Only | Print | Product List | Glossary On
Versions: 1 2 3 4 5 6 7 8 9 10 11 12 13 14 15 16 17 18 19 20 21 22 23 24 25
000
FTUS41 KPBZ 272013 AAA
TAFHLG
TAF AMD
KHLG 272013Z 2720/2818 20006KT P6SM -RA OVC035
     FM272100 21008KT P6SM -RA OVC015
     FM280300 15003KT P6SM OVC080
     FM280600 16004KT P6SM SCT080
     FM281600 19012G20KT P6SM OVC080=

USA.gov is the U.S. government's official web portal to all federal, state and local government web resources and services.